Cotes De Bretagne — FW3973 — position and weather

sailwx.info

Track history (hours):
 
Tides and Currents Weather Stations Pressure Air Temp Water Temp Dewpoint Dewpoint Depression Visibility Wind Speed Wind Dir Waves Ship Positions

Cotes De Bretagne

Last reported at 2016-Apr-29 05:26 UTC. Time now 2016-Apr-29 08:16 UTC.
Position N 48°43' W 004°28'.

Length 75 m; draft 4.2 m.

Type: Dredging. MMSI: 227003850.

Date/timePositionNaut miles runAvg speedWind from/ knotsBaromVisibWave heightAir tempDewpointWater temp
2016-Apr-29 05:26N 48°43' W 004°28'910.2
2016-Apr-29 04:33N 48°39' W 004°40'9 9.5
2016-Apr-29 03:34N 48°34' W 004°52'8 7.5
2016-Apr-29 02:33N 48°27' W 004°50'9 9.2
2016-Apr-29 01:34N 48°18' W 004°46'9 9.0
2016-Apr-29 00:34N 48°09' W 004°45'8 7.7
2016-Apr-28 23:34N 48°01' W 004°45'43 8.6
2016-Apr-28 18:33N 47°38' W 003°51'10 9.6
2016-Apr-28 17:34N 47°40' W 003°37'9 9.0
2016-Apr-28 16:33N 47°41' W 003°24'4 3.5
2016-Apr-28 15:34N 47°44' W 003°21'0 0.0
2016-Apr-28 14:33N 47°44' W 003°21'0 0.0
2016-Apr-28 13:34N 47°44' W 003°21'0 0.0
2016-Apr-28 12:34N 47°44' W 003°21'0 0.0
2016-Apr-28 11:34N 47°44' W 003°21'0 0.0
2016-Apr-28 10:33N 47°44' W 003°21'0 0.0
2016-Apr-28 09:34N 47°44' W 003°21'0 0.0
2016-Apr-28 08:34N 47°44' W 003°21'2 1.5
2016-Apr-28 07:34N 47°45' W 003°19'0 0.0
2016-Apr-28 06:34N 47°45' W 003°19'0 0.0
2016-Apr-28 05:33N 47°45' W 003°19'1 1.5
2016-Apr-28 04:34N 47°44' W 003°21'0 0.0
2016-Apr-28 03:33N 47°44' W 003°21'0 0.0
2016-Apr-28 02:34N 47°44' W 003°21'0 0.0
2016-Apr-28 01:33N 47°44' W 003°21'0 0.0
2016-Apr-28 00:34N 47°44' W 003°21'0 0.0
2016-Apr-27 23:34N 47°44' W 003°21'0 0.0
2016-Apr-27 22:33N 47°44' W 003°21'0 0.0
2016-Apr-27 21:34N 47°44' W 003°21'2 2.0
2016-Apr-27 20:34N 47°42' W 003°22'8 8.1
2016-Apr-27 19:34N 47°35' W 003°18'8 8.4
2016-Apr-27 18:34N 47°28' W 003°11'8 8.0
2016-Apr-27 17:34N 47°21' W 003°03'8 8.3
2016-Apr-27 16:33N 47°15' W 002°55'8 8.3
2016-Apr-27 15:33N 47°09' W 002°47'36 8.7
2016-Apr-27 11:23N 46°42' W 002°11'7 8.5
2016-Apr-27 10:33N 46°37' W 002°04'8 8.5
2016-Apr-27 09:33N 46°30' W 001°57'8 8.3
2016-Apr-27 08:34N 46°24' W 001°48'3 2.9
2016-Apr-27 07:33N 46°22' W 001°45'0 0.3
2016-Apr-27 06:33N 46°22' W 001°45'0 0.0
2016-Apr-27 05:34N 46°22' W 001°45'4 3.8
2016-Apr-27 04:33N 46°25' W 001°50'1010.5
2016-Apr-27 03:33N 46°33' W 001°59'1010.1
2016-Apr-27 02:32N 46°40' W 002°09'10 9.8
2016-Apr-27 01:33N 46°48' W 002°18'14 9.4
2016-Apr-27 00:04N 46°58' W 002°33'6 9.9
2016-Apr-26 23:31N 47°02' W 002°38'10 9.9
2016-Apr-26 22:32N 47°09' W 002°48'1010.4
2016-Apr-26 21:33N 47°17' W 002°57'1110.7
2016-Apr-26 20:33N 47°25' W 003°08'1110.6
2016-Apr-26 19:34N 47°34' W 003°17'1010.2
2016-Apr-26 18:34N 47°43' W 003°22'2 2.5
2016-Apr-26 17:34N 47°45' W 003°19'0 0.0
2016-Apr-26 16:34N 47°45' W 003°19'1 1.5
2016-Apr-26 15:33N 47°44' W 003°21'0 0.0
2016-Apr-26 14:33N 47°44' W 003°21'0 0.0
2016-Apr-26 13:33N 47°44' W 003°21'0 0.0
2016-Apr-26 12:34N 47°44' W 003°21'0 0.1
2016-Apr-26 11:33N 47°44' W 003°21'0 0.0
2016-Apr-26 10:33N 47°44' W 003°21'0 0.0
2016-Apr-26 09:34N 47°44' W 003°21'0 0.0
2016-Apr-26 08:33N 47°44' W 003°21'0 0.0
2016-Apr-26 07:34N 47°44' W 003°21'4 3.9
2016-Apr-26 06:34N 47°41' W 003°24'1 1.0
2016-Apr-26 05:33N 47°40' W 003°24'0 0.0
2016-Apr-26 04:30N 47°40' W 003°24'0 0.0
2016-Apr-26 03:33N 47°40' W 003°24'3 2.7
2016-Apr-26 02:33N 47°38' W 003°21'8 8.2
2016-Apr-26 01:33N 47°31' W 003°15'8 7.9
2016-Apr-26 00:33N 47°25' W 003°08'8 8.3
2016-Apr-25 23:33N 47°19' W 002°60'8 8.1
2016-Apr-25 22:33N 47°13' W 002°52'8 7.6
2016-Apr-25 21:33N 47°07' W 002°44'7 6.6
2016-Apr-25 20:32N 47°02' W 002°38'13 6.8
2016-Apr-25 18:33N 46°52' W 002°24'10 7.4
2016-Apr-25 17:10N 46°44' W 002°14'13 8.0
2016-Apr-25 15:33N 46°34' W 002°04'8 7.9
2016-Apr-25 14:33N 46°27' W 001°57'8 8.3
2016-Apr-25 13:33N 46°20' W 001°50'12 2.4
2016-Apr-25 08:18N 46°10' W 001°40'810.8
2016-Apr-25 07:33N 46°17' W 001°47'1110.7
2016-Apr-25 06:33N 46°26' W 001°56'2310.8
2016-Apr-25 04:27N 46°44' W 002°15'1011.2
2016-Apr-25 03:33N 46°52' W 002°25'1210.6
2016-Apr-25 02:24N 47°01' W 002°36'810.0
2016-Apr-25 01:33N 47°07' W 002°44'10 9.7
2016-Apr-25 00:33N 47°15' W 002°54'10 9.8
2016-Apr-24 23:33N 47°21' W 003°05'10 9.6
2016-Apr-24 22:34N 47°26' W 003°17'10 9.6
2016-Apr-24 21:33N 47°32' W 003°28'1010.4
2016-Apr-24 20:33N 47°39' W 003°40'26 8.7
2016-Apr-24 17:33N 47°58' W 004°06'15 0.9
2016-Apr-24 01:11N 47°46' W 003°54'6 9.5
2016-Apr-24 00:33N 47°43' W 003°47'10 9.7
2016-Apr-23 23:33N 47°37' W 003°36'10 9.7
2016-Apr-23 22:33N 47°30' W 003°24'1010.1
2016-Apr-23 21:33N 47°24' W 003°13'10 9.9
2016-Apr-23 20:34N 47°19' W 003°00'9 9.2
2016-Apr-23 19:33N 47°13' W 002°51'9 9.1
2016-Apr-23 18:32N 47°05' W 002°42'26 8.5
2016-Apr-23 15:32N 46°46' W 002°17'9 7.7
2016-Apr-23 14:23N 46°39' W 002°10'7 8.5
2016-Apr-23 13:33N 46°34' W 002°04'9 8.8
2016-Apr-23 12:33N 46°26' W 001°57'9 8.8
2016-Apr-23 11:33N 46°19' W 001°49'9 9.1
2016-Apr-23 10:33N 46°11' W 001°42'10 3.2
2016-Apr-23 07:24N 46°05' W 001°30'910.9
2016-Apr-23 06:33N 46°03' W 001°17'6 1.0
2016-Apr-23 00:22N 45°60' W 001°10'6 7.9
2016-Apr-22 23:33N 46°04' W 001°16'6 6.4
2016-Apr-22 22:33N 46°05' W 001°25'1 0.3
2016-Apr-22 18:33N 46°05' W 001°24'1111.0
2016-Apr-22 17:33N 45°60' W 001°10'1 0.3
2016-Apr-22 12:20N 45°59' W 001°08'8 9.8
2016-Apr-22 11:33N 46°04' W 001°16'4 4.3
2016-Apr-22 10:33N 46°06' W 001°22'24 4.7
2016-Apr-22 05:33N 46°16' W 001°52'1110.9
2016-Apr-22 04:33N 46°24' W 002°03'1111.1
2016-Apr-22 03:32N 46°32' W 002°14'1510.8
2016-Apr-22 02:10N 46°43' W 002°30'1710.8
2016-Apr-22 00:33N 46°55' W 002°47'1110.8
2016-Apr-21 23:33N 47°03' W 002°58'1310.4
2016-Apr-21 22:19N 47°12' W 003°11'7 9.7
2016-Apr-21 21:33N 47°18' W 003°19'10 9.8
2016-Apr-21 20:33N 47°25' W 003°28'1010.4
2016-Apr-21 19:33N 47°34' W 003°37'1010.3
2016-Apr-21 18:33N 47°42' W 003°47'13 1.9
2016-Apr-21 11:33N 47°49' W 004°03'6 5.7
2016-Apr-21 10:27N 47°46' W 003°55'6 6.2
2016-Apr-21 09:33N 47°44' W 003°47'9 9.1
2016-Apr-21 08:33N 47°41' W 003°34'1010.0
2016-Apr-21 07:33N 47°38' W 003°21'1010.0
2016-Apr-21 06:33N 47°30' W 003°12'1010.1
2016-Apr-21 05:33N 47°22' W 003°03'10 9.7
2016-Apr-21 04:33N 47°14' W 002°54'10 9.6
2016-Apr-21 03:33N 47°07' W 002°45'9 9.4
2016-Apr-21 02:33N 46°60' W 002°36'10 9.3
2016-Apr-21 01:31N 46°53' W 002°26'9 9.2
2016-Apr-21 00:33N 46°47' W 002°17'10 9.6
2016-Apr-20 23:30N 46°38' W 002°08'9 9.6
2016-Apr-20 22:33N 46°31' W 002°00'10 9.7
2016-Apr-20 21:33N 46°23' W 001°53'10 9.9
2016-Apr-20 20:31N 46°14' W 001°45'11 3.3
2016-Apr-20 17:14N 46°05' W 001°36'710.7
2016-Apr-20 16:33N 46°12' W 001°41'1111.1
2016-Apr-20 15:33N 46°22' W 001°45'8 8.0
2016-Apr-20 14:33N 46°30' W 001°48'0 0.0
2016-Apr-20 13:33N 46°30' W 001°48'2 1.6
2016-Apr-20 12:33N 46°28' W 001°47'2 2.3
2016-Apr-20 11:33N 46°26' W 001°47'4 4.4
2016-Apr-20 10:33N 46°22' W 001°45'5 5.1
2016-Apr-20 09:34N 46°17' W 001°44'7 1.4
2016-Apr-20 04:21N 46°10' W 001°40'7 8.9
2016-Apr-20 03:33N 46°16' W 001°46'9 8.8
2016-Apr-20 02:33N 46°23' W 001°53'9 9.1
2016-Apr-20 01:33N 46°31' W 002°00'10 9.3
2016-Apr-20 00:29N 46°39' W 002°09'10 9.1
2016-Apr-19 23:23N 46°47' W 002°17'8 9.0
2016-Apr-19 22:33N 46°52' W 002°25'10 8.7
2016-Apr-19 21:27N 46°59' W 002°35'8 8.6
2016-Apr-19 20:33N 47°05' W 002°42'8 8.3
2016-Apr-19 19:33N 47°11' W 002°51'8 8.4
2016-Apr-19 18:33N 47°18' W 002°59'9 8.6
2016-Apr-19 17:33N 47°24' W 003°07'9 8.8
2016-Apr-19 16:33N 47°31' W 003°15'9 9.4
2016-Apr-19 15:33N 47°39' W 003°22'6 6.1
2016-Apr-19 14:34N 47°45' W 003°19'0 0.0
2016-Apr-19 13:33N 47°45' W 003°19'0 0.0
2016-Apr-19 12:33N 47°45' W 003°19'1 1.5
2016-Apr-19 11:33N 47°44' W 003°21'0 0.0
2016-Apr-19 10:33N 47°44' W 003°21'0 0.0
2016-Apr-19 09:33N 47°44' W 003°21'0 0.1
2016-Apr-19 08:33N 47°44' W 003°21'6 6.1
2016-Apr-19 07:33N 47°38' W 003°21'9 9.1
2016-Apr-19 06:34N 47°31' W 003°14'1010.5
2016-Apr-19 05:34N 47°22' W 003°04'  
Track history (hours):
 
Tides and Currents Weather Stations Pressure Air Temp Water Temp Dewpoint Dewpoint Depression Visibility Wind Speed Wind Dir Waves Ship Positions

Cotes De Bretagne

Last reported at 2016-Apr-29 05:26 UTC. Time now 2016-Apr-29 08:16 UTC.
Position N 48°43' W 004°28'.

Length 75 m; draft 4.2 m.

Type: Dredging. MMSI: 227003850.

Date/timePositionNaut miles runAvg speedWind from/ knotsBaromVisibWave heightAir tempDewpointWater temp
2016-Apr-29 05:26N 48°43' W 004°28'910.2
2016-Apr-29 04:33N 48°39' W 004°40'9 9.5
2016-Apr-29 03:34N 48°34' W 004°52'8 7.5
2016-Apr-29 02:33N 48°27' W 004°50'9 9.2
2016-Apr-29 01:34N 48°18' W 004°46'9 9.0
2016-Apr-29 00:34N 48°09' W 004°45'8 7.7
2016-Apr-28 23:34N 48°01' W 004°45'43 8.6
2016-Apr-28 18:33N 47°38' W 003°51'10 9.6
2016-Apr-28 17:34N 47°40' W 003°37'9 9.0
2016-Apr-28 16:33N 47°41' W 003°24'4 3.5
2016-Apr-28 15:34N 47°44' W 003°21'0 0.0
2016-Apr-28 14:33N 47°44' W 003°21'0 0.0
2016-Apr-28 13:34N 47°44' W 003°21'0 0.0
2016-Apr-28 12:34N 47°44' W 003°21'0 0.0
2016-Apr-28 11:34N 47°44' W 003°21'0 0.0
2016-Apr-28 10:33N 47°44' W 003°21'0 0.0
2016-Apr-28 09:34N 47°44' W 003°21'0 0.0
2016-Apr-28 08:34N 47°44' W 003°21'2 1.5
2016-Apr-28 07:34N 47°45' W 003°19'0 0.0
2016-Apr-28 06:34N 47°45' W 003°19'0 0.0
2016-Apr-28 05:33N 47°45' W 003°19'1 1.5
2016-Apr-28 04:34N 47°44' W 003°21'0 0.0
2016-Apr-28 03:33N 47°44' W 003°21'0 0.0
2016-Apr-28 02:34N 47°44' W 003°21'0 0.0
2016-Apr-28 01:33N 47°44' W 003°21'0 0.0
2016-Apr-28 00:34N 47°44' W 003°21'0 0.0
2016-Apr-27 23:34N 47°44' W 003°21'0 0.0
2016-Apr-27 22:33N 47°44' W 003°21'0 0.0
2016-Apr-27 21:34N 47°44' W 003°21'2 2.0
2016-Apr-27 20:34N 47°42' W 003°22'8 8.1
2016-Apr-27 19:34N 47°35' W 003°18'8 8.4
2016-Apr-27 18:34N 47°28' W 003°11'8 8.0
2016-Apr-27 17:34N 47°21' W 003°03'8 8.3
2016-Apr-27 16:33N 47°15' W 002°55'8 8.3
2016-Apr-27 15:33N 47°09' W 002°47'36 8.7
2016-Apr-27 11:23N 46°42' W 002°11'7 8.5
2016-Apr-27 10:33N 46°37' W 002°04'8 8.5
2016-Apr-27 09:33N 46°30' W 001°57'8 8.3
2016-Apr-27 08:34N 46°24' W 001°48'3 2.9
2016-Apr-27 07:33N 46°22' W 001°45'0 0.3
2016-Apr-27 06:33N 46°22' W 001°45'0 0.0
2016-Apr-27 05:34N 46°22' W 001°45'4 3.8
2016-Apr-27 04:33N 46°25' W 001°50'1010.5
2016-Apr-27 03:33N 46°33' W 001°59'1010.1
2016-Apr-27 02:32N 46°40' W 002°09'10 9.8
2016-Apr-27 01:33N 46°48' W 002°18'14 9.4
2016-Apr-27 00:04N 46°58' W 002°33'6 9.9
2016-Apr-26 23:31N 47°02' W 002°38'10 9.9
2016-Apr-26 22:32N 47°09' W 002°48'1010.4
2016-Apr-26 21:33N 47°17' W 002°57'1110.7
2016-Apr-26 20:33N 47°25' W 003°08'1110.6
2016-Apr-26 19:34N 47°34' W 003°17'1010.2
2016-Apr-26 18:34N 47°43' W 003°22'2 2.5
2016-Apr-26 17:34N 47°45' W 003°19'0 0.0
2016-Apr-26 16:34N 47°45' W 003°19'1 1.5
2016-Apr-26 15:33N 47°44' W 003°21'0 0.0
2016-Apr-26 14:33N 47°44' W 003°21'0 0.0
2016-Apr-26 13:33N 47°44' W 003°21'0 0.0
2016-Apr-26 12:34N 47°44' W 003°21'0 0.1
2016-Apr-26 11:33N 47°44' W 003°21'0 0.0
2016-Apr-26 10:33N 47°44' W 003°21'0 0.0
2016-Apr-26 09:34N 47°44' W 003°21'0 0.0
2016-Apr-26 08:33N 47°44' W 003°21'0 0.0
2016-Apr-26 07:34N 47°44' W 003°21'4 3.9
2016-Apr-26 06:34N 47°41' W 003°24'1 1.0
2016-Apr-26 05:33N 47°40' W 003°24'0 0.0
2016-Apr-26 04:30N 47°40' W 003°24'0 0.0
2016-Apr-26 03:33N 47°40' W 003°24'3 2.7
2016-Apr-26 02:33N 47°38' W 003°21'8 8.2
2016-Apr-26 01:33N 47°31' W 003°15'8 7.9
2016-Apr-26 00:33N 47°25' W 003°08'8 8.3
2016-Apr-25 23:33N 47°19' W 002°60'8 8.1
2016-Apr-25 22:33N 47°13' W 002°52'8 7.6
2016-Apr-25 21:33N 47°07' W 002°44'7 6.6
2016-Apr-25 20:32N 47°02' W 002°38'13 6.8
2016-Apr-25 18:33N 46°52' W 002°24'10 7.4
2016-Apr-25 17:10N 46°44' W 002°14'13 8.0
2016-Apr-25 15:33N 46°34' W 002°04'8 7.9
2016-Apr-25 14:33N 46°27' W 001°57'8 8.3
2016-Apr-25 13:33N 46°20' W 001°50'12 2.4
2016-Apr-25 08:18N 46°10' W 001°40'810.8
2016-Apr-25 07:33N 46°17' W 001°47'1110.7
2016-Apr-25 06:33N 46°26' W 001°56'2310.8
2016-Apr-25 04:27N 46°44' W 002°15'1011.2
2016-Apr-25 03:33N 46°52' W 002°25'1210.6
2016-Apr-25 02:24N 47°01' W 002°36'810.0
2016-Apr-25 01:33N 47°07' W 002°44'10 9.7
2016-Apr-25 00:33N 47°15' W 002°54'10 9.8
2016-Apr-24 23:33N 47°21' W 003°05'10 9.6
2016-Apr-24 22:34N 47°26' W 003°17'10 9.6
2016-Apr-24 21:33N 47°32' W 003°28'1010.4
2016-Apr-24 20:33N 47°39' W 003°40'26 8.7
2016-Apr-24 17:33N 47°58' W 004°06'15 0.9
2016-Apr-24 01:11N 47°46' W 003°54'6 9.5
2016-Apr-24 00:33N 47°43' W 003°47'10 9.7
2016-Apr-23 23:33N 47°37' W 003°36'10 9.7
2016-Apr-23 22:33N 47°30' W 003°24'1010.1
2016-Apr-23 21:33N 47°24' W 003°13'10 9.9
2016-Apr-23 20:34N 47°19' W 003°00'9 9.2
2016-Apr-23 19:33N 47°13' W 002°51'9 9.1
2016-Apr-23 18:32N 47°05' W 002°42'26 8.5
2016-Apr-23 15:32N 46°46' W 002°17'9 7.7
2016-Apr-23 14:23N 46°39' W 002°10'7 8.5
2016-Apr-23 13:33N 46°34' W 002°04'9 8.8
2016-Apr-23 12:33N 46°26' W 001°57'9 8.8
2016-Apr-23 11:33N 46°19' W 001°49'9 9.1
2016-Apr-23 10:33N 46°11' W 001°42'10 3.2
2016-Apr-23 07:24N 46°05' W 001°30'910.9
2016-Apr-23 06:33N 46°03' W 001°17'6 1.0
2016-Apr-23 00:22N 45°60' W 001°10'6 7.9
2016-Apr-22 23:33N 46°04' W 001°16'6 6.4
2016-Apr-22 22:33N 46°05' W 001°25'1 0.3
2016-Apr-22 18:33N 46°05' W 001°24'1111.0
2016-Apr-22 17:33N 45°60' W 001°10'1 0.3
2016-Apr-22 12:20N 45°59' W 001°08'8 9.8
2016-Apr-22 11:33N 46°04' W 001°16'4 4.3
2016-Apr-22 10:33N 46°06' W 001°22'24 4.7
2016-Apr-22 05:33N 46°16' W 001°52'1110.9
2016-Apr-22 04:33N 46°24' W 002°03'1111.1
2016-Apr-22 03:32N 46°32' W 002°14'1510.8
2016-Apr-22 02:10N 46°43' W 002°30'1710.8
2016-Apr-22 00:33N 46°55' W 002°47'1110.8
2016-Apr-21 23:33N 47°03' W 002°58'1310.4
2016-Apr-21 22:19N 47°12' W 003°11'7 9.7
2016-Apr-21 21:33N 47°18' W 003°19'10 9.8
2016-Apr-21 20:33N 47°25' W 003°28'1010.4
2016-Apr-21 19:33N 47°34' W 003°37'1010.3
2016-Apr-21 18:33N 47°42' W 003°47'13 1.9
2016-Apr-21 11:33N 47°49' W 004°03'6 5.7
2016-Apr-21 10:27N 47°46' W 003°55'6 6.2
2016-Apr-21 09:33N 47°44' W 003°47'9 9.1
2016-Apr-21 08:33N 47°41' W 003°34'1010.0
2016-Apr-21 07:33N 47°38' W 003°21'1010.0
2016-Apr-21 06:33N 47°30' W 003°12'1010.1
2016-Apr-21 05:33N 47°22' W 003°03'10 9.7
2016-Apr-21 04:33N 47°14' W 002°54'10 9.6
2016-Apr-21 03:33N 47°07' W 002°45'9 9.4
2016-Apr-21 02:33N 46°60' W 002°36'10 9.3
2016-Apr-21 01:31N 46°53' W 002°26'9 9.2
2016-Apr-21 00:33N 46°47' W 002°17'10 9.6
2016-Apr-20 23:30N 46°38' W 002°08'9 9.6
2016-Apr-20 22:33N 46°31' W 002°00'10 9.7
2016-Apr-20 21:33N 46°23' W 001°53'10 9.9
2016-Apr-20 20:31N 46°14' W 001°45'11 3.3
2016-Apr-20 17:14N 46°05' W 001°36'710.7
2016-Apr-20 16:33N 46°12' W 001°41'1111.1
2016-Apr-20 15:33N 46°22' W 001°45'8 8.0
2016-Apr-20 14:33N 46°30' W 001°48'0 0.0
2016-Apr-20 13:33N 46°30' W 001°48'2 1.6
2016-Apr-20 12:33N 46°28' W 001°47'2 2.3
2016-Apr-20 11:33N 46°26' W 001°47'4 4.4
2016-Apr-20 10:33N 46°22' W 001°45'5 5.1
2016-Apr-20 09:34N 46°17' W 001°44'7 1.4
2016-Apr-20 04:21N 46°10' W 001°40'7 8.9
2016-Apr-20 03:33N 46°16' W 001°46'9 8.8
2016-Apr-20 02:33N 46°23' W 001°53'9 9.1
2016-Apr-20 01:33N 46°31' W 002°00'10 9.3
2016-Apr-20 00:29N 46°39' W 002°09'10 9.1
2016-Apr-19 23:23N 46°47' W 002°17'8 9.0
2016-Apr-19 22:33N 46°52' W 002°25'10 8.7
2016-Apr-19 21:27N 46°59' W 002°35'8 8.6
2016-Apr-19 20:33N 47°05' W 002°42'8 8.3
2016-Apr-19 19:33N 47°11' W 002°51'8 8.4
2016-Apr-19 18:33N 47°18' W 002°59'9 8.6
2016-Apr-19 17:33N 47°24' W 003°07'9 8.8
2016-Apr-19 16:33N 47°31' W 003°15'9 9.4
2016-Apr-19 15:33N 47°39' W 003°22'6 6.1
2016-Apr-19 14:34N 47°45' W 003°19'0 0.0
2016-Apr-19 13:33N 47°45' W 003°19'0 0.0
2016-Apr-19 12:33N 47°45' W 003°19'1 1.5
2016-Apr-19 11:33N 47°44' W 003°21'0 0.0
2016-Apr-19 10:33N 47°44' W 003°21'0 0.0
2016-Apr-19 09:33N 47°44' W 003°21'0 0.1
2016-Apr-19 08:33N 47°44' W 003°21'6 6.1
2016-Apr-19 07:33N 47°38' W 003°21'9 9.1
2016-Apr-19 06:34N 47°31' W 003°14'1010.5
2016-Apr-19 05:34N 47°22' W 003°04'  

Dump ship's entire track history